createdAt,value
2023-02-04T00:00:25.201Z,4.00
2023-02-04T00:02:52.086Z,3.90
2023-02-04T00:05:21.125Z,3.80
2023-02-04T00:07:47.411Z,3.70
2023-02-04T00:10:14.610Z,3.50
2023-02-04T00:12:40.798Z,3.50
2023-02-04T00:15:15.364Z,3.50
2023-02-04T00:17:51.715Z,3.40
2023-02-04T00:20:19.042Z,3.40
2023-02-04T00:22:45.487Z,3.30
2023-02-04T00:25:12.289Z,3.30
2023-02-04T00:27:39.804Z,3.30
2023-02-04T00:30:06.773Z,3.30
2023-02-04T00:32:32.972Z,3.30
2023-02-04T00:34:59.294Z,3.30
2023-02-04T00:37:25.527Z,3.30
2023-02-04T00:39:51.921Z,3.30
2023-02-04T00:42:18.125Z,3.30
2023-02-04T00:44:44.928Z,3.20
2023-02-04T00:47:11.209Z,3.10
2023-02-04T00:49:37.655Z,3.00
2023-02-04T00:52:04.215Z,3.00
2023-02-04T00:54:30.361Z,3.00
2023-02-04T00:56:56.722Z,2.90
2023-02-04T00:59:22.961Z,5.80
2023-02-04T01:01:49.339Z,2.90
2023-02-04T01:04:16.640Z,2.80
2023-02-04T01:06:43.244Z,2.70
2023-02-04T01:09:09.666Z,2.60
2023-02-04T01:11:36.259Z,2.50
2023-02-04T01:14:02.586Z,2.50
2023-02-04T01:16:29.375Z,2.40
2023-02-04T01:18:55.891Z,2.40
2023-02-04T01:21:24.990Z,2.40
2023-02-04T01:23:51.547Z,4.90
2023-02-04T01:26:18.393Z,2.30
2023-02-04T01:28:45.606Z,2.30
2023-02-04T01:31:12.087Z,2.30
2023-02-04T01:33:38.381Z,2.40
2023-02-04T01:36:05.443Z,2.40
2023-02-04T01:38:31.574Z,2.30
2023-02-04T01:40:57.881Z,2.20
2023-02-04T01:43:24.064Z,2.10
2023-02-04T01:45:50.358Z,1.70
2023-02-04T01:48:22.423Z,1.40
2023-02-04T01:50:53.322Z,1.30
2023-02-04T01:53:21.297Z,1.20
2023-02-04T01:55:47.948Z,1.10
2023-02-04T01:58:14.072Z,1.10
2023-02-04T02:00:40.562Z,1.10
2023-02-04T02:03:11.112Z,2.30
2023-02-04T02:05:44.677Z,1.00
2023-02-04T02:08:11.062Z,1.00
2023-02-04T02:10:37.600Z,1.00
2023-02-04T02:13:05.573Z,0.90
2023-02-04T02:15:31.667Z,0.90
2023-02-04T02:17:57.925Z,0.90
2023-02-04T02:20:24.791Z,0.80
2023-02-04T02:23:38.912Z,0.90
2023-02-04T02:26:05.090Z,0.80
2023-02-04T02:28:32.290Z,0.70
2023-02-04T02:30:58.511Z,0.70
2023-02-04T02:33:25.662Z,0.70
2023-02-04T02:35:51.835Z,0.70
2023-02-04T02:38:18.458Z,0.70
2023-02-04T02:40:45.023Z,0.70
2023-02-04T02:43:15.522Z,0.70
2023-02-04T02:45:41.970Z,0.70
2023-02-04T02:48:08.579Z,0.70
2023-02-04T02:50:34.753Z,0.70
2023-02-04T02:53:01.293Z,0.60
2023-02-04T02:55:28.217Z,1.00
2023-02-04T02:57:55.327Z,0.70
2023-02-04T03:00:24.376Z,0.70
2023-02-04T03:03:05.796Z,0.70
2023-02-04T03:05:33.690Z,0.70
2023-02-04T03:08:00.125Z,0.70
2023-02-04T03:10:26.323Z,0.70
2023-02-04T03:12:52.563Z,0.70
2023-02-04T03:15:18.700Z,0.60
2023-02-04T03:17:45.381Z,0.90
2023-02-04T03:20:12.962Z,0.70
2023-02-04T03:22:39.096Z,0.70
2023-02-04T03:25:06.042Z,0.60
2023-02-04T03:27:32.210Z,0.60
2023-02-04T03:29:58.646Z,0.60
2023-02-04T03:32:25.011Z,0.50
2023-02-04T03:34:51.146Z,0.50
2023-02-04T03:37:17.374Z,0.50
2023-02-04T03:39:43.968Z,0.40
2023-02-04T03:42:10.553Z,0.40
2023-02-04T03:44:36.677Z,0.40
2023-02-04T03:47:02.897Z,0.40
2023-02-04T03:49:29.395Z,0.40
2023-02-04T03:51:55.569Z,0.30
2023-02-04T03:54:22.610Z,0.40
2023-02-04T03:56:48.825Z,0.30
2023-02-04T03:59:14.933Z,0.50
2023-02-04T04:01:41.088Z,0.30
2023-02-04T04:04:07.245Z,0.30
2023-02-04T04:06:33.383Z,0.30
2023-02-04T04:08:59.492Z,0.30
2023-02-04T04:11:26.762Z,0.40
2023-02-04T04:13:52.864Z,0.30
2023-02-04T04:16:20.295Z,0.40
2023-02-04T04:18:46.522Z,0.30
2023-02-04T04:21:13.108Z,0.30
2023-02-04T04:23:39.476Z,0.30
2023-02-04T04:26:05.630Z,0.30
2023-02-04T04:28:31.835Z,0.30
2023-02-04T04:30:58.142Z,0.30
2023-02-04T04:33:24.382Z,0.30
2023-02-04T04:35:50.475Z,0.60
2023-02-04T04:38:17.160Z,0.20
2023-02-04T04:40:43.267Z,0.20
2023-02-04T04:43:09.508Z,0.20
2023-02-04T04:45:35.633Z,0.30
2023-02-04T04:48:01.844Z,0.20
2023-02-04T04:50:27.997Z,0.30
2023-02-04T04:52:54.197Z,0.20
2023-02-04T04:55:20.292Z,-1.60
2023-02-04T04:57:46.437Z,0.20
2023-02-04T05:00:17.167Z,0.20
2023-02-04T05:02:43.337Z,0.20
2023-02-04T05:05:10.046Z,0.30
2023-02-04T05:07:36.697Z,0.20
2023-02-04T05:10:03.684Z,0.20
2023-02-04T05:12:29.808Z,0.20
2023-02-04T05:14:56.291Z,0.20
2023-02-04T05:17:22.525Z,0.20
2023-02-04T05:19:50.511Z,0.20
2023-02-04T05:22:16.721Z,0.20
2023-02-04T05:24:42.803Z,0.20
2023-02-04T05:27:09.068Z,0.20
2023-02-04T05:29:35.200Z,0.20
2023-02-04T05:32:01.388Z,0.10
2023-02-04T05:34:28.034Z,0.20
2023-02-04T05:36:54.175Z,0.20
2023-02-04T05:39:20.574Z,0.10
2023-02-04T05:41:47.247Z,0.10
2023-02-04T05:44:13.363Z,0.60
2023-02-04T05:46:39.802Z,0.10
2023-02-04T05:49:06.926Z,0.00
2023-02-04T05:51:33.600Z,-0.10
2023-02-04T05:53:59.923Z,-0.10
2023-02-04T05:56:26.569Z,0.00
2023-02-04T05:58:52.706Z,0.00
2023-02-04T06:01:18.960Z,0.00
2023-02-04T06:03:45.114Z,-0.10
2023-02-04T06:06:12.287Z,-0.20
2023-02-04T06:08:38.413Z,-0.10
2023-02-04T06:11:04.859Z,-0.10
2023-02-04T06:13:31.065Z,-0.10
2023-02-04T06:15:57.235Z,-0.10
2023-02-04T06:18:23.465Z,-0.10
2023-02-04T06:20:49.664Z,-0.20
2023-02-04T06:23:15.876Z,-0.30
2023-02-04T06:25:42.295Z,-0.30
2023-02-04T06:28:08.547Z,-0.30
2023-02-04T06:30:37.006Z,-0.30
2023-02-04T06:33:03.780Z,-0.40
2023-02-04T06:35:29.991Z,-0.10
2023-02-04T06:37:56.216Z,-0.40
2023-02-04T06:40:22.849Z,-0.40
2023-02-04T06:42:49.039Z,-0.40
2023-02-04T06:45:16.230Z,-0.40
2023-02-04T06:47:42.450Z,-0.30
2023-02-04T06:50:10.456Z,-0.20
2023-02-04T06:52:37.023Z,-0.40
2023-02-04T06:55:04.531Z,-0.30
2023-02-04T06:57:31.797Z,-0.30
2023-02-04T06:59:57.927Z,-0.30
2023-02-04T07:02:24.180Z,0.20
2023-02-04T07:04:50.556Z,-0.40
2023-02-04T07:07:17.497Z,-0.30
2023-02-04T07:09:43.832Z,-0.30
2023-02-04T07:12:10.053Z,-0.30
2023-02-04T07:14:36.190Z,-0.20
2023-02-04T07:17:02.438Z,-0.30
2023-02-04T07:19:28.736Z,-0.30
2023-02-04T07:21:56.292Z,0.00
2023-02-04T07:24:26.364Z,-0.30
2023-02-04T07:26:52.760Z,-0.30
2023-02-04T07:29:25.249Z,-0.30
2023-02-04T07:31:52.614Z,-0.20
2023-02-04T07:34:18.945Z,-0.10
2023-02-04T07:36:45.355Z,0.10
2023-02-04T07:39:12.636Z,0.40
2023-02-04T07:41:39.871Z,0.30
2023-02-04T07:44:06.161Z,0.30
2023-02-04T07:46:32.416Z,0.30
2023-02-04T07:49:00.644Z,0.80
2023-02-04T07:51:27.921Z,1.30
2023-02-04T07:53:55.466Z,1.10
2023-02-04T07:56:21.692Z,1.80
2023-02-04T07:58:48.532Z,1.80
2023-02-04T08:01:15.064Z,1.90
2023-02-04T08:03:42.842Z,1.90
2023-02-04T08:06:09.508Z,2.00
2023-02-04T08:08:35.803Z,1.80
2023-02-04T08:11:02.636Z,2.30
2023-02-04T08:13:29.410Z,2.00
2023-02-04T08:15:55.986Z,2.30
2023-02-04T08:18:24.515Z,2.40
2023-02-04T08:20:51.747Z,2.10
2023-02-04T08:23:18.402Z,2.10
2023-02-04T08:25:45.013Z,2.20
2023-02-04T08:28:11.504Z,1.80
2023-02-04T08:30:37.987Z,2.10
2023-02-04T08:33:04.376Z,2.40
2023-02-04T08:35:30.798Z,2.00
2023-02-04T08:37:57.581Z,2.00
2023-02-04T08:40:24.312Z,2.50
2023-02-04T08:42:50.679Z,2.30
2023-02-04T08:45:17.913Z,2.20
2023-02-04T08:47:45.647Z,2.20
2023-02-04T08:50:12.547Z,2.00
2023-02-04T08:52:39.904Z,1.70
2023-02-04T08:55:07.014Z,2.10
2023-02-04T08:57:35.372Z,2.30
2023-02-04T09:00:02.979Z,2.30
2023-02-04T09:02:29.799Z,2.40
2023-02-04T09:04:56.076Z,1.80
2023-02-04T09:07:22.343Z,1.70
2023-02-04T09:09:48.773Z,1.60
2023-02-04T09:12:15.452Z,1.50
2023-02-04T09:14:41.949Z,1.50
2023-02-04T09:17:08.153Z,1.40
2023-02-04T09:19:34.384Z,1.50
2023-02-04T09:22:01.023Z,1.50
2023-02-04T09:24:27.447Z,1.60
2023-02-04T09:26:53.738Z,1.60
2023-02-04T09:29:19.959Z,1.40
2023-02-04T09:31:46.193Z,1.70
2023-02-04T09:34:13.793Z,1.60
2023-02-04T09:36:40.057Z,1.50
2023-02-04T09:39:07.135Z,1.40
2023-02-04T09:41:33.978Z,1.30
2023-02-04T09:44:01.143Z,1.20
2023-02-04T09:46:30.429Z,1.20
2023-02-04T09:48:58.666Z,1.10
2023-02-04T09:51:29.342Z,1.10
2023-02-04T09:54:59.542Z,1.00
2023-02-04T09:57:26.880Z,1.10
2023-02-04T09:59:53.609Z,1.10
2023-02-04T10:02:22.348Z,1.20
2023-02-04T10:04:50.077Z,1.30
2023-02-04T10:07:17.800Z,1.30
2023-02-04T10:09:44.484Z,1.30
2023-02-04T10:12:10.961Z,1.30
2023-02-04T10:14:38.217Z,1.50
2023-02-04T10:17:04.768Z,1.50
2023-02-04T10:19:31.253Z,1.60
2023-02-04T10:21:57.759Z,1.40
2023-02-04T10:24:25.828Z,1.30
2023-02-04T10:26:52.240Z,1.20
2023-02-04T10:29:25.044Z,1.20
2023-02-04T10:31:51.590Z,1.20
2023-02-04T10:34:22.728Z,1.20
2023-02-04T10:36:53.757Z,1.50
2023-02-04T10:39:30.430Z,1.50
2023-02-04T10:42:00.869Z,1.80
2023-02-04T10:44:32.678Z,1.80
2023-02-04T10:47:03.384Z,1.60
2023-02-04T10:49:29.803Z,1.50
2023-02-04T10:51:57.785Z,1.60
2023-02-04T10:54:34.231Z,1.60
2023-02-04T10:57:35.887Z,1.50
2023-02-04T11:00:04.596Z,1.90
2023-02-04T11:03:23.838Z,1.90
2023-02-04T11:05:51.331Z,2.00
2023-02-04T11:08:28.847Z,2.00
2023-02-04T11:11:06.296Z,2.20
2023-02-04T11:13:43.068Z,2.10
2023-02-04T11:17:18.644Z,2.00
2023-02-04T11:19:45.448Z,2.40
2023-02-04T11:22:36.284Z,2.80
2023-02-04T11:25:02.990Z,2.70
2023-02-04T11:27:39.169Z,2.60
2023-02-04T11:30:20.157Z,2.20
2023-02-04T11:33:02.111Z,1.80
2023-02-04T11:35:28.551Z,1.70
2023-02-04T11:37:55.956Z,1.70
2023-02-04T11:40:39.728Z,1.70
2023-02-04T11:43:11.075Z,1.70
2023-02-04T11:45:37.532Z,1.70
2023-02-04T11:48:14.986Z,1.50
2023-02-04T11:50:42.031Z,1.60
2023-02-04T11:53:10.654Z,1.50
2023-02-04T11:55:46.430Z,1.50
2023-02-04T11:58:15.147Z,1.60
2023-02-04T12:00:44.295Z,1.50
2023-02-04T12:03:29.109Z,-1.00
2023-02-04T12:05:55.910Z,1.40
2023-02-04T12:08:29.793Z,1.40
2023-02-04T12:11:06.058Z,1.40
2023-02-04T12:13:32.919Z,1.40
2023-02-04T12:16:01.134Z,1.50
2023-02-04T12:18:28.923Z,1.60
2023-02-04T12:20:56.816Z,2.00
2023-02-04T12:23:24.377Z,2.10
2023-02-04T12:25:50.822Z,1.70
2023-02-04T12:28:17.193Z,1.60
2023-02-04T12:30:43.912Z,1.60
2023-02-04T12:33:10.932Z,1.60
2023-02-04T12:35:37.212Z,1.60
2023-02-04T12:38:03.722Z,1.70
2023-02-04T12:40:31.050Z,1.70
2023-02-04T12:42:57.300Z,2.00
2023-02-04T12:45:23.521Z,1.90
2023-02-04T12:47:49.892Z,2.00
2023-02-04T12:50:23.439Z,2.00
2023-02-04T12:52:54.062Z,1.80
2023-02-04T12:55:20.698Z,1.90
2023-02-04T12:57:47.919Z,2.30
2023-02-04T13:00:15.592Z,2.50
2023-02-04T13:02:42.869Z,2.30
2023-02-04T13:05:09.674Z,2.10
2023-02-04T13:07:36.721Z,1.90
2023-02-04T13:10:04.871Z,2.10
2023-02-04T13:12:31.466Z,5.00
2023-02-04T13:14:57.999Z,2.70
2023-02-04T13:17:28.414Z,2.40
2023-02-04T13:19:55.015Z,-0.70
2023-02-04T13:22:21.250Z,2.10
2023-02-04T13:24:47.454Z,2.00
2023-02-04T13:27:17.911Z,2.00
2023-02-04T13:29:44.543Z,1.90
2023-02-04T13:32:10.852Z,2.00
2023-02-04T13:34:38.313Z,1.90
2023-02-04T13:37:04.556Z,1.90
2023-02-04T13:39:30.786Z,1.80
2023-02-04T13:41:57.316Z,1.70
2023-02-04T13:44:23.632Z,1.70
2023-02-04T13:46:49.893Z,1.50
2023-02-04T13:49:16.123Z,1.40
2023-02-04T13:51:42.626Z,1.30
2023-02-04T13:54:08.886Z,1.30
2023-02-04T13:56:37.372Z,1.30
2023-02-04T13:59:03.588Z,1.20
2023-02-04T14:01:31.098Z,1.20
2023-02-04T14:03:57.471Z,1.20
2023-02-04T14:06:32.980Z,1.00
2023-02-04T14:09:03.114Z,0.40
2023-02-04T14:11:29.401Z,0.20
2023-02-04T14:13:56.302Z,0.10
2023-02-04T14:16:22.916Z,-0.10
2023-02-04T14:18:49.380Z,-0.10
2023-02-04T14:21:16.407Z,-0.10
2023-02-04T14:23:44.151Z,0.00
2023-02-04T14:26:10.699Z,0.00
2023-02-04T14:28:36.952Z,0.10
2023-02-04T14:31:03.278Z,0.20
2023-02-04T14:33:29.521Z,0.30
2023-02-04T14:35:56.854Z,0.40
2023-02-04T14:38:23.074Z,0.50
2023-02-04T14:40:49.736Z,0.60
2023-02-04T14:43:16.008Z,0.70
2023-02-04T14:45:42.677Z,0.80
2023-02-04T14:48:09.315Z,0.30
2023-02-04T14:50:35.922Z,0.00
2023-02-04T14:53:02.560Z,-0.20
2023-02-04T14:55:28.933Z,-0.30
2023-02-04T14:57:55.368Z,-0.40
2023-02-04T15:00:22.279Z,-0.40
2023-02-04T15:02:48.842Z,-0.50
2023-02-04T15:05:15.892Z,-0.50
2023-02-04T15:07:42.143Z,-0.50
2023-02-04T15:10:09.092Z,-0.50
2023-02-04T15:12:35.609Z,-0.40
2023-02-04T15:15:02.058Z,-0.20
2023-02-04T15:17:28.524Z,-0.10
2023-02-04T15:19:55.974Z,-0.10
2023-02-04T15:22:22.393Z,0.00
2023-02-04T15:24:48.792Z,0.00
2023-02-04T15:27:15.045Z,0.00
2023-02-04T15:29:41.847Z,0.00
2023-02-04T15:32:10.148Z,0.00
2023-02-04T15:34:36.886Z,-0.10
2023-02-04T15:37:03.385Z,-0.10
2023-02-04T15:39:30.025Z,-0.10
2023-02-04T15:41:56.541Z,0.00
2023-02-04T15:44:23.539Z,0.00
2023-02-04T15:46:51.435Z,-0.10
2023-02-04T15:49:18.098Z,0.00
2023-02-04T15:51:44.287Z,0.10
2023-02-04T15:54:10.681Z,0.20
2023-02-04T15:56:36.921Z,0.10
2023-02-04T15:59:03.379Z,0.10
2023-02-04T16:01:31.253Z,0.00
2023-02-04T16:03:58.449Z,-0.10
2023-02-04T16:06:25.824Z,-0.10
2023-02-04T16:08:53.321Z,2.10
2023-02-04T16:11:23.581Z,-0.20
2023-02-04T16:13:50.855Z,-0.20
2023-02-04T16:16:17.800Z,-0.20
2023-02-04T16:18:46.216Z,-0.20
2023-02-04T16:21:13.528Z,-0.30
2023-02-04T16:23:42.752Z,-0.40
2023-02-04T16:26:09.820Z,-0.40
2023-02-04T16:28:36.301Z,-0.40
2023-02-04T16:31:03.936Z,-0.40
2023-02-04T16:33:30.376Z,-0.40
2023-02-04T16:36:13.006Z,0.10
2023-02-04T16:38:40.016Z,-0.40
2023-02-04T16:41:07.498Z,-0.50
2023-02-04T16:43:34.477Z,-0.50
2023-02-04T16:46:00.762Z,-0.40
2023-02-04T16:48:28.536Z,-0.40
2023-02-04T16:50:55.024Z,-0.30
2023-02-04T16:53:21.698Z,-0.20
2023-02-04T16:55:48.739Z,-0.20
2023-02-04T16:58:15.942Z,-0.20
2023-02-04T17:00:44.123Z,-0.20
2023-02-04T17:03:12.711Z,-0.20
2023-02-04T17:05:41.025Z,-0.20
2023-02-04T17:08:07.988Z,-0.20
2023-02-04T17:10:57.256Z,-0.30
2023-02-04T17:13:23.775Z,-0.20
2023-02-04T17:15:52.918Z,-0.30
2023-02-04T17:18:19.478Z,-0.30
2023-02-04T17:20:47.709Z,-0.30
2023-02-04T17:23:14.678Z,-0.40
2023-02-04T17:25:44.039Z,-0.30
2023-02-04T17:28:10.903Z,-0.40
2023-02-04T17:30:38.382Z,0.10
2023-02-04T17:33:04.660Z,1.30
2023-02-04T17:35:31.551Z,0.10
2023-02-04T17:38:01.572Z,-0.10
2023-02-04T17:40:28.930Z,0.00
2023-02-04T17:42:55.700Z,0.00
2023-02-04T17:45:22.611Z,0.00
2023-02-04T17:47:49.121Z,0.00
2023-02-04T17:50:15.749Z,0.10
2023-02-04T17:52:42.618Z,0.10
2023-02-04T17:55:42.388Z,0.00
2023-02-04T17:58:16.508Z,2.40
2023-02-04T18:00:45.047Z,0.10
2023-02-04T18:03:13.125Z,0.00
2023-02-04T18:05:42.857Z,0.00
2023-02-04T18:08:42.689Z,0.10
2023-02-04T18:11:27.571Z,0.10
2023-02-04T18:13:57.232Z,0.00
2023-02-04T18:16:30.582Z,0.10
2023-02-04T18:19:16.911Z,0.00
2023-02-04T18:21:43.174Z,0.00
2023-02-04T18:24:29.147Z,0.00
2023-02-04T18:26:58.626Z,0.00
2023-02-04T18:29:35.393Z,-0.10
2023-02-04T18:32:25.416Z,-0.10
2023-02-04T18:34:53.264Z,0.00
2023-02-04T18:37:36.575Z,0.00
2023-02-04T18:40:36.037Z,0.00
2023-02-04T18:43:41.052Z,0.00
2023-02-04T18:46:19.518Z,0.00
2023-02-04T18:49:14.190Z,0.00
2023-02-04T18:51:44.311Z,-0.10
2023-02-04T18:54:50.932Z,-0.40
2023-02-04T18:57:29.403Z,-0.60
2023-02-04T19:00:26.884Z,-0.80
2023-02-04T19:03:02.550Z,-0.90
2023-02-04T19:05:36.423Z,-0.40
2023-02-04T19:08:22.935Z,-0.90
2023-02-04T19:10:49.639Z,-0.90
2023-02-04T19:13:40.182Z,-0.80
2023-02-04T19:16:35.621Z,-0.80
2023-02-04T19:19:07.046Z,-0.80
2023-02-04T19:21:35.055Z,-0.80
2023-02-04T19:24:22.438Z,-0.80
2023-02-04T19:27:01.808Z,-0.70
2023-02-04T19:29:40.493Z,-0.80
2023-02-04T19:32:27.858Z,-0.80
2023-02-04T19:34:58.190Z,-0.70
2023-02-04T19:37:40.087Z,-0.60
2023-02-04T19:40:30.022Z,-0.50
2023-02-04T19:46:29.903Z,-0.50
2023-02-04T19:48:56.314Z,-0.50
2023-02-04T19:51:27.918Z,-0.40
2023-02-04T19:54:01.981Z,-0.50
2023-02-04T19:56:37.019Z,-0.50
2023-02-04T20:00:10.862Z,-0.50
2023-02-04T20:02:38.988Z,-0.50
2023-02-04T20:05:17.826Z,-0.50
2023-02-04T20:07:44.807Z,-0.50
2023-02-04T20:10:35.069Z,-0.60
2023-02-04T20:13:15.283Z,-0.60
2023-02-04T20:15:42.566Z,-0.60
2023-02-04T20:18:19.358Z,-0.60
2023-02-04T20:20:51.320Z,-0.50
2023-02-04T20:23:52.213Z,-0.70
2023-02-04T20:26:19.506Z,-0.70
2023-02-04T20:28:51.896Z,-0.70
2023-02-04T20:31:23.439Z,-0.70
2023-02-04T20:33:59.098Z,-0.80
2023-02-04T20:36:38.027Z,-0.90
2023-02-04T20:39:46.656Z,-0.90
2023-02-04T20:42:45.310Z,-1.00
2023-02-04T20:45:35.176Z,-1.00
2023-02-04T20:49:13.076Z,-1.20
2023-02-04T20:51:40.433Z,-1.30
2023-02-04T20:54:11.836Z,-1.40
2023-02-04T20:56:40.440Z,-1.40
2023-02-04T20:59:49.751Z,-1.50
2023-02-04T21:02:17.341Z,-1.40
2023-02-04T21:04:51.827Z,-1.40
2023-02-04T21:07:21.023Z,-1.60
2023-02-04T21:09:47.853Z,-1.80
2023-02-04T21:12:15.004Z,-1.70
2023-02-04T21:14:41.889Z,-1.80
2023-02-04T21:17:08.339Z,-1.90
2023-02-04T21:19:35.281Z,-2.00
2023-02-04T21:22:01.845Z,-2.10
2023-02-04T21:24:31.303Z,-2.20
2023-02-04T21:26:57.694Z,-2.20
2023-02-04T21:29:25.699Z,-2.20
2023-02-04T21:31:54.048Z,-2.00
2023-02-04T21:36:49.894Z,-2.10
2023-02-04T21:39:16.895Z,-2.10
2023-02-04T21:41:43.852Z,-2.20
2023-02-04T21:44:12.722Z,-2.10
2023-02-04T21:46:39.930Z,-2.10
2023-02-04T21:49:06.630Z,0.70
2023-02-04T21:51:32.971Z,-2.10
2023-02-04T21:54:01.166Z,-2.10
2023-02-04T21:56:28.406Z,-1.30
2023-02-04T22:01:22.800Z,-2.00
2023-02-04T22:03:49.157Z,1.10
2023-02-04T22:06:15.816Z,-2.10
2023-02-04T22:08:42.084Z,-2.00
2023-02-04T22:11:08.401Z,-2.00
2023-02-04T22:13:35.246Z,-2.00
2023-02-04T22:16:01.815Z,-2.00
2023-02-04T22:18:29.118Z,-1.90
2023-02-04T22:20:57.099Z,-1.90
2023-02-04T22:23:23.436Z,-1.90
2023-02-04T22:25:50.583Z,-1.90
2023-02-04T22:28:17.206Z,-1.80
2023-02-04T22:30:44.102Z,-1.80
2023-02-04T22:33:14.235Z,-1.70
2023-02-04T22:35:41.988Z,-1.70
2023-02-04T22:38:09.271Z,-1.70
2023-02-04T22:40:36.347Z,-1.60
2023-02-04T22:43:04.268Z,-1.60
2023-02-04T22:45:30.585Z,-1.60
2023-02-04T22:47:56.985Z,-1.10
2023-02-04T22:50:23.279Z,-1.60
2023-02-04T22:52:49.461Z,-1.60
2023-02-04T22:55:15.965Z,-1.50
2023-02-04T22:57:42.120Z,-1.50
2023-02-04T23:00:10.268Z,-1.50
2023-02-04T23:02:36.575Z,-1.50
2023-02-04T23:05:04.072Z,-1.50
2023-02-04T23:07:30.952Z,-1.50
2023-02-04T23:09:57.534Z,-1.60
2023-02-04T23:12:23.987Z,-1.60
2023-02-04T23:14:50.405Z,-1.80
2023-02-04T23:17:16.829Z,-1.30
2023-02-04T23:19:43.480Z,-1.80
2023-02-04T23:22:10.179Z,-1.90
2023-02-04T23:24:36.455Z,-1.90
2023-02-04T23:27:03.534Z,-4.30
2023-02-04T23:29:31.556Z,-2.10
2023-02-04T23:31:58.175Z,-2.10
2023-02-04T23:34:24.453Z,-1.30
2023-02-04T23:36:51.465Z,-2.10
2023-02-04T23:39:18.595Z,-2.10
2023-02-04T23:41:44.922Z,-2.10
2023-02-04T23:44:11.290Z,-1.40
2023-02-04T23:46:38.157Z,-2.20
2023-02-04T23:51:31.980Z,-2.00
2023-02-04T23:53:58.370Z,-2.30
2023-02-04T23:56:24.921Z,-2.10
2023-02-04T23:58:52.700Z,-2.10
